sensor_id;sensor_type;location;lat;lon;timestamp;temperature;humidity
1830;DHT22;914;48.118;11.600;2023-03-02T00:01:37;4.20;94.30
1830;DHT22;914;48.118;11.600;2023-03-02T00:04:05;4.20;94.40
1830;DHT22;914;48.118;11.600;2023-03-02T00:06:33;4.40;93.70
1830;DHT22;914;48.118;11.600;2023-03-02T00:09:01;4.20;93.80
1830;DHT22;914;48.118;11.600;2023-03-02T00:11:31;4.30;94.00
1830;DHT22;914;48.118;11.600;2023-03-02T00:13:57;4.30;94.00
1830;DHT22;914;48.118;11.600;2023-03-02T00:16:23;4.20;93.70
1830;DHT22;914;48.118;11.600;2023-03-02T00:18:48;4.00;94.00
1830;DHT22;914;48.118;11.600;2023-03-02T00:21:14;3.80;94.70
1830;DHT22;914;48.118;11.600;2023-03-02T00:23:40;3.90;94.80
1830;DHT22;914;48.118;11.600;2023-03-02T00:26:06;4.10;94.60
1830;DHT22;914;48.118;11.600;2023-03-02T00:28:32;4.40;94.00
1830;DHT22;914;48.118;11.600;2023-03-02T00:30:58;4.30;94.20
1830;DHT22;914;48.118;11.600;2023-03-02T00:33:24;4.30;93.50
1830;DHT22;914;48.118;11.600;2023-03-02T00:35:49;4.20;93.90
1830;DHT22;914;48.118;11.600;2023-03-02T00:38:15;3.80;94.20
1830;DHT22;914;48.118;11.600;2023-03-02T00:40:45;3.90;94.70
1830;DHT22;914;48.118;11.600;2023-03-02T00:43:11;3.80;94.50
1830;DHT22;914;48.118;11.600;2023-03-02T00:45:37;3.80;95.00
1830;DHT22;914;48.118;11.600;2023-03-02T00:48:03;3.90;94.50
1830;DHT22;914;48.118;11.600;2023-03-02T00:50:29;3.90;94.90
1830;DHT22;914;48.118;11.600;2023-03-02T00:52:55;4.00;94.70
1830;DHT22;914;48.118;11.600;2023-03-02T00:55:20;3.90;94.40
1830;DHT22;914;48.118;11.600;2023-03-02T00:57:46;4.00;94.30
1830;DHT22;914;48.118;11.600;2023-03-02T01:00:23;3.90;94.70
1830;DHT22;914;48.118;11.600;2023-03-02T01:02:51;4.00;95.00
1830;DHT22;914;48.118;11.600;2023-03-02T01:05:16;4.10;94.60
1830;DHT22;914;48.118;11.600;2023-03-02T01:07:42;4.20;94.30
1830;DHT22;914;48.118;11.600;2023-03-02T01:10:08;4.00;93.90
1830;DHT22;914;48.118;11.600;2023-03-02T01:12:34;4.00;94.50
1830;DHT22;914;48.118;11.600;2023-03-02T01:15:00;3.50;94.80
1830;DHT22;914;48.118;11.600;2023-03-02T01:17:26;3.20;95.60
1830;DHT22;914;48.118;11.600;2023-03-02T01:19:52;3.10;97.30
1830;DHT22;914;48.118;11.600;2023-03-02T01:22:19;3.30;97.30
1830;DHT22;914;48.118;11.600;2023-03-02T01:24:44;3.60;96.90
1830;DHT22;914;48.118;11.600;2023-03-02T01:27:10;3.50;96.40
1830;DHT22;914;48.118;11.600;2023-03-02T01:29:36;3.60;96.30
1830;DHT22;914;48.118;11.600;2023-03-02T01:32:02;3.50;96.10
1830;DHT22;914;48.118;11.600;2023-03-02T01:34:28;3.40;96.70
1830;DHT22;914;48.118;11.600;2023-03-02T01:36:54;3.20;96.70
1830;DHT22;914;48.118;11.600;2023-03-02T01:39:19;3.50;97.40
1830;DHT22;914;48.118;11.600;2023-03-02T01:41:48;3.70;96.50
1830;DHT22;914;48.118;11.600;2023-03-02T01:47:23;3.80;96.00
1830;DHT22;914;48.118;11.600;2023-03-02T01:49:59;3.70;95.70
1830;DHT22;914;48.118;11.600;2023-03-02T01:52:28;3.80;95.80
1830;DHT22;914;48.118;11.600;2023-03-02T01:54:57;3.70;95.40
1830;DHT22;914;48.118;11.600;2023-03-02T01:57:27;3.70;95.50
1830;DHT22;914;48.118;11.600;2023-03-02T01:59:58;3.80;95.60
1830;DHT22;914;48.118;11.600;2023-03-02T02:02:25;3.80;95.20
1830;DHT22;914;48.118;11.600;2023-03-02T02:04:52;3.70;95.30
1830;DHT22;914;48.118;11.600;2023-03-02T02:07:22;3.60;95.40
1830;DHT22;914;48.118;11.600;2023-03-02T02:09:51;3.70;95.60
1830;DHT22;914;48.118;11.600;2023-03-02T02:12:22;3.70;95.40
1830;DHT22;914;48.118;11.600;2023-03-02T02:14:48;3.70;95.10
1830;DHT22;914;48.118;11.600;2023-03-02T02:17:15;3.50;95.40
1830;DHT22;914;48.118;11.600;2023-03-02T02:22:19;3.50;95.50
1830;DHT22;914;48.118;11.600;2023-03-02T02:24:57;3.40;95.60
1830;DHT22;914;48.118;11.600;2023-03-02T02:27:24;3.40;95.80
1830;DHT22;914;48.118;11.600;2023-03-02T02:30:02;3.50;96.10
1830;DHT22;914;48.118;11.600;2023-03-02T02:32:32;3.60;95.60
1830;DHT22;914;48.118;11.600;2023-03-02T02:35:16;3.60;95.40
1830;DHT22;914;48.118;11.600;2023-03-02T02:37:52;3.50;95.50
1830;DHT22;914;48.118;11.600;2023-03-02T02:40:59;3.40;95.50
1830;DHT22;914;48.118;11.600;2023-03-02T02:43:27;3.50;95.80
1830;DHT22;914;48.118;11.600;2023-03-02T02:45:56;3.50;95.40
1830;DHT22;914;48.118;11.600;2023-03-02T02:48:23;3.30;95.40
1830;DHT22;914;48.118;11.600;2023-03-02T02:50:51;3.20;95.50
1830;DHT22;914;48.118;11.600;2023-03-02T02:53:29;3.30;95.80
1830;DHT22;914;48.118;11.600;2023-03-02T02:55:59;3.20;95.70
1830;DHT22;914;48.118;11.600;2023-03-02T02:58:33;3.20;95.60
1830;DHT22;914;48.118;11.600;2023-03-02T03:01:00;3.20;95.50
1830;DHT22;914;48.118;11.600;2023-03-02T03:03:30;3.20;95.70
1830;DHT22;914;48.118;11.600;2023-03-02T03:06:03;3.20;95.80
1830;DHT22;914;48.118;11.600;2023-03-02T03:08:49;3.10;95.80
1830;DHT22;914;48.118;11.600;2023-03-02T03:11:18;3.10;96.00
1830;DHT22;914;48.118;11.600;2023-03-02T03:14:06;3.10;96.10
1830;DHT22;914;48.118;11.600;2023-03-02T03:16:33;3.20;96.10
1830;DHT22;914;48.118;11.600;2023-03-02T03:19:15;3.10;96.20
1830;DHT22;914;48.118;11.600;2023-03-02T03:21:43;3.00;96.30
1830;DHT22;914;48.118;11.600;2023-03-02T03:24:09;2.90;96.50
1830;DHT22;914;48.118;11.600;2023-03-02T03:26:35;3.00;96.90
1830;DHT22;914;48.118;11.600;2023-03-02T03:29:01;2.90;96.60
1830;DHT22;914;48.118;11.600;2023-03-02T03:31:27;3.00;97.00
1830;DHT22;914;48.118;11.600;2023-03-02T03:33:54;3.00;96.90
1830;DHT22;914;48.118;11.600;2023-03-02T03:36:20;3.00;97.20
1830;DHT22;914;48.118;11.600;2023-03-02T03:38:46;3.00;97.10
1830;DHT22;914;48.118;11.600;2023-03-02T03:41:13;3.00;97.10
1830;DHT22;914;48.118;11.600;2023-03-02T03:43:39;3.00;97.40
1830;DHT22;914;48.118;11.600;2023-03-02T03:46:05;2.90;97.30
1830;DHT22;914;48.118;11.600;2023-03-02T03:48:31;3.00;97.50
1830;DHT22;914;48.118;11.600;2023-03-02T03:50:59;3.10;97.40
1830;DHT22;914;48.118;11.600;2023-03-02T03:53:25;3.20;97.00
1830;DHT22;914;48.118;11.600;2023-03-02T03:55:51;3.30;97.00
1830;DHT22;914;48.118;11.600;2023-03-02T03:58:18;3.30;96.70
1830;DHT22;914;48.118;11.600;2023-03-02T04:00:44;3.20;96.80
1830;DHT22;914;48.118;11.600;2023-03-02T04:03:15;3.20;96.80
1830;DHT22;914;48.118;11.600;2023-03-02T04:05:41;3.20;96.80
1830;DHT22;914;48.118;11.600;2023-03-02T04:08:07;3.20;96.80
1830;DHT22;914;48.118;11.600;2023-03-02T04:10:33;3.20;96.80
1830;DHT22;914;48.118;11.600;2023-03-02T04:12:59;3.30;96.90
1830;DHT22;914;48.118;11.600;2023-03-02T04:15:26;3.20;96.70
1830;DHT22;914;48.118;11.600;2023-03-02T04:17:52;3.20;96.70
1830;DHT22;914;48.118;11.600;2023-03-02T04:20:19;3.10;96.60
1830;DHT22;914;48.118;11.600;2023-03-02T04:22:47;3.10;96.70
1830;DHT22;914;48.118;11.600;2023-03-02T04:25:14;3.10;96.50
1830;DHT22;914;48.118;11.600;2023-03-02T04:27:47;3.20;96.50
1830;DHT22;914;48.118;11.600;2023-03-02T04:30:15;3.20;96.30
1830;DHT22;914;48.118;11.600;2023-03-02T04:32:41;3.10;95.90
1830;DHT22;914;48.118;11.600;2023-03-02T04:35:10;3.00;96.20
1830;DHT22;914;48.118;11.600;2023-03-02T04:37:36;3.00;96.00
1830;DHT22;914;48.118;11.600;2023-03-02T04:40:03;3.00;96.30
1830;DHT22;914;48.118;11.600;2023-03-02T04:42:28;2.90;96.30
1830;DHT22;914;48.118;11.600;2023-03-02T04:44:54;2.90;96.60
1830;DHT22;914;48.118;11.600;2023-03-02T04:47:20;2.90;96.60
1830;DHT22;914;48.118;11.600;2023-03-02T04:49:46;2.90;96.50
1830;DHT22;914;48.118;11.600;2023-03-02T04:52:13;3.00;96.50
1830;DHT22;914;48.118;11.600;2023-03-02T04:54:39;3.10;96.50
1830;DHT22;914;48.118;11.600;2023-03-02T04:57:05;3.10;96.10
1830;DHT22;914;48.118;11.600;2023-03-02T04:59:32;3.20;95.80
1830;DHT22;914;48.118;11.600;2023-03-02T05:01:59;3.20;95.60
1830;DHT22;914;48.118;11.600;2023-03-02T05:04:27;3.10;95.60
1830;DHT22;914;48.118;11.600;2023-03-02T05:06:53;3.10;95.80
1830;DHT22;914;48.118;11.600;2023-03-02T05:09:19;3.10;95.70
1830;DHT22;914;48.118;11.600;2023-03-02T05:11:52;3.00;95.40
1830;DHT22;914;48.118;11.600;2023-03-02T05:14:18;3.10;95.60
1830;DHT22;914;48.118;11.600;2023-03-02T05:16:44;3.20;95.70
1830;DHT22;914;48.118;11.600;2023-03-02T05:19:10;3.30;95.40
1830;DHT22;914;48.118;11.600;2023-03-02T05:21:36;3.10;95.40
1830;DHT22;914;48.118;11.600;2023-03-02T05:24:02;2.90;95.70
1830;DHT22;914;48.118;11.600;2023-03-02T05:26:28;2.80;96.00
1830;DHT22;914;48.118;11.600;2023-03-02T05:28:54;2.70;96.60
1830;DHT22;914;48.118;11.600;2023-03-02T05:31:38;2.70;96.60
1830;DHT22;914;48.118;11.600;2023-03-02T05:34:06;2.50;96.60
1830;DHT22;914;48.118;11.600;2023-03-02T05:36:32;2.50;97.10
1830;DHT22;914;48.118;11.600;2023-03-02T05:38:58;2.50;97.20
1830;DHT22;914;48.118;11.600;2023-03-02T05:41:23;2.60;97.30
1830;DHT22;914;48.118;11.600;2023-03-02T05:43:49;2.70;97.50
1830;DHT22;914;48.118;11.600;2023-03-02T05:46:15;2.90;97.10
1830;DHT22;914;48.118;11.600;2023-03-02T05:48:42;3.00;96.60
1830;DHT22;914;48.118;11.600;2023-03-02T05:51:07;3.00;96.40
1830;DHT22;914;48.118;11.600;2023-03-02T05:53:33;2.80;96.20
1830;DHT22;914;48.118;11.600;2023-03-02T05:55:59;2.70;96.30
1830;DHT22;914;48.118;11.600;2023-03-02T05:58:25;2.80;96.50
1830;DHT22;914;48.118;11.600;2023-03-02T06:00:51;2.80;96.40
1830;DHT22;914;48.118;11.600;2023-03-02T06:03:17;3.00;96.60
1830;DHT22;914;48.118;11.600;2023-03-02T06:05:43;3.10;96.30
1830;DHT22;914;48.118;11.600;2023-03-02T06:08:09;3.10;96.30
1830;DHT22;914;48.118;11.600;2023-03-02T06:10:35;2.90;96.20
1830;DHT22;914;48.118;11.600;2023-03-02T06:13:00;2.90;96.40
1830;DHT22;914;48.118;11.600;2023-03-02T06:15:26;3.00;96.50
1830;DHT22;914;48.118;11.600;2023-03-02T06:17:55;3.00;96.50
1830;DHT22;914;48.118;11.600;2023-03-02T06:20:21;3.00;96.40
1830;DHT22;914;48.118;11.600;2023-03-02T06:22:47;3.00;96.50
1830;DHT22;914;48.118;11.600;2023-03-02T06:25:16;2.90;96.80
1830;DHT22;914;48.118;11.600;2023-03-02T06:27:43;3.00;97.20
1830;DHT22;914;48.118;11.600;2023-03-02T06:30:12;3.10;97.20
1830;DHT22;914;48.118;11.600;2023-03-02T06:32:38;3.10;97.10
1830;DHT22;914;48.118;11.600;2023-03-02T06:35:05;3.20;97.00
1830;DHT22;914;48.118;11.600;2023-03-02T06:37:31;3.20;97.00
1830;DHT22;914;48.118;11.600;2023-03-02T06:39:57;3.20;97.10
1830;DHT22;914;48.118;11.600;2023-03-02T06:42:24;3.30;97.10
1830;DHT22;914;48.118;11.600;2023-03-02T06:44:50;3.40;97.00
1830;DHT22;914;48.118;11.600;2023-03-02T06:47:21;3.50;97.10
1830;DHT22;914;48.118;11.600;2023-03-02T06:49:46;3.60;97.00
1830;DHT22;914;48.118;11.600;2023-03-02T06:52:12;3.60;96.80
1830;DHT22;914;48.118;11.600;2023-03-02T06:54:39;3.70;96.70
1830;DHT22;914;48.118;11.600;2023-03-02T06:57:05;3.80;96.60
1830;DHT22;914;48.118;11.600;2023-03-02T06:59:32;3.80;96.40
1830;DHT22;914;48.118;11.600;2023-03-02T07:01:59;3.90;96.40
1830;DHT22;914;48.118;11.600;2023-03-02T07:04:25;3.80;95.90
1830;DHT22;914;48.118;11.600;2023-03-02T07:06:53;3.60;96.20
1830;DHT22;914;48.118;11.600;2023-03-02T07:09:19;3.80;96.70
1830;DHT22;914;48.118;11.600;2023-03-02T07:11:45;3.90;96.60
1830;DHT22;914;48.118;11.600;2023-03-02T07:14:11;4.10;96.70
1830;DHT22;914;48.118;11.600;2023-03-02T07:16:37;3.80;95.90
1830;DHT22;914;48.118;11.600;2023-03-02T07:19:02;3.80;97.10
1830;DHT22;914;48.118;11.600;2023-03-02T07:21:31;4.00;97.00
1830;DHT22;914;48.118;11.600;2023-03-02T07:23:57;4.30;97.30
1830;DHT22;914;48.118;11.600;2023-03-02T07:26:23;4.20;96.20
1830;DHT22;914;48.118;11.600;2023-03-02T07:28:48;4.10;96.30
1830;DHT22;914;48.118;11.600;2023-03-02T07:31:14;4.30;96.70
1830;DHT22;914;48.118;11.600;2023-03-02T07:33:39;4.30;96.80
1830;DHT22;914;48.118;11.600;2023-03-02T07:36:06;4.30;97.10
1830;DHT22;914;48.118;11.600;2023-03-02T07:38:32;4.10;97.00
1830;DHT22;914;48.118;11.600;2023-03-02T07:40:58;4.20;97.60
1830;DHT22;914;48.118;11.600;2023-03-02T07:43:24;4.50;97.00
1830;DHT22;914;48.118;11.600;2023-03-02T07:45:51;4.60;96.60
1830;DHT22;914;48.118;11.600;2023-03-02T07:48:17;4.80;96.10
1830;DHT22;914;48.118;11.600;2023-03-02T07:50:44;5.00;95.90
1830;DHT22;914;48.118;11.600;2023-03-02T07:53:10;3.90;96.20
1830;DHT22;914;48.118;11.600;2023-03-02T07:55:40;4.10;97.90
1830;DHT22;914;48.118;11.600;2023-03-02T07:58:05;4.30;97.50
1830;DHT22;914;48.118;11.600;2023-03-02T08:00:31;4.00;97.40
1830;DHT22;914;48.118;11.600;2023-03-02T08:02:57;4.50;97.60
1830;DHT22;914;48.118;11.600;2023-03-02T08:05:22;4.40;97.20
1830;DHT22;914;48.118;11.600;2023-03-02T08:07:48;5.10;96.50
1830;DHT22;914;48.118;11.600;2023-03-02T08:10:14;5.20;95.70
1830;DHT22;914;48.118;11.600;2023-03-02T08:12:40;5.30;95.20
1830;DHT22;914;48.118;11.600;2023-03-02T08:15:07;4.90;95.40
1830;DHT22;914;48.118;11.600;2023-03-02T08:17:33;5.00;96.30
1830;DHT22;914;48.118;11.600;2023-03-02T08:19:59;5.40;95.50
1830;DHT22;914;48.118;11.600;2023-03-02T08:22:25;5.40;95.30
1830;DHT22;914;48.118;11.600;2023-03-02T08:24:50;5.80;95.20
1830;DHT22;914;48.118;11.600;2023-03-02T08:27:16;5.60;94.80
1830;DHT22;914;48.118;11.600;2023-03-02T08:29:42;5.90;94.40
1830;DHT22;914;48.118;11.600;2023-03-02T08:32:08;5.30;94.30
1830;DHT22;914;48.118;11.600;2023-03-02T08:34:34;5.50;94.70
1830;DHT22;914;48.118;11.600;2023-03-02T08:36:59;5.50;94.80
1830;DHT22;914;48.118;11.600;2023-03-02T08:39:25;5.70;94.70
1830;DHT22;914;48.118;11.600;2023-03-02T08:41:54;5.90;94.50
1830;DHT22;914;48.118;11.600;2023-03-02T08:44:20;5.10;93.90
1830;DHT22;914;48.118;11.600;2023-03-02T08:46:47;5.30;96.00
1830;DHT22;914;48.118;11.600;2023-03-02T08:49:14;5.80;95.60
1830;DHT22;914;48.118;11.600;2023-03-02T08:51:40;6.00;94.70
1830;DHT22;914;48.118;11.600;2023-03-02T08:54:06;6.30;94.30
1830;DHT22;914;48.118;11.600;2023-03-02T08:56:34;6.50;94.30
1830;DHT22;914;48.118;11.600;2023-03-02T08:59:05;6.60;94.00
1830;DHT22;914;48.118;11.600;2023-03-02T09:01:33;6.60;94.00
1830;DHT22;914;48.118;11.600;2023-03-02T09:04:00;6.70;93.60
1830;DHT22;914;48.118;11.600;2023-03-02T09:06:27;6.80;93.90
1830;DHT22;914;48.118;11.600;2023-03-02T09:08:54;7.00;93.00
1830;DHT22;914;48.118;11.600;2023-03-02T09:11:20;7.00;92.80
1830;DHT22;914;48.118;11.600;2023-03-02T09:13:45;6.90;92.70
1830;DHT22;914;48.118;11.600;2023-03-02T09:16:12;6.70;93.20
1830;DHT22;914;48.118;11.600;2023-03-02T09:18:41;6.90;93.30
1830;DHT22;914;48.118;11.600;2023-03-02T09:21:07;6.80;93.00
1830;DHT22;914;48.118;11.600;2023-03-02T09:23:33;7.00;93.40
1830;DHT22;914;48.118;11.600;2023-03-02T09:26:01;7.00;93.30
1830;DHT22;914;48.118;11.600;2023-03-02T09:28:27;7.30;93.30
1830;DHT22;914;48.118;11.600;2023-03-02T09:30:56;7.40;92.70
1830;DHT22;914;48.118;11.600;2023-03-02T09:33:25;7.30;93.00
1830;DHT22;914;48.118;11.600;2023-03-02T09:35:51;7.60;93.00
1830;DHT22;914;48.118;11.600;2023-03-02T09:38:17;7.80;92.20
1830;DHT22;914;48.118;11.600;2023-03-02T09:46:16;7.60;92.60
1830;DHT22;914;48.118;11.600;2023-03-02T09:51:32;8.20;91.80
1830;DHT22;914;48.118;11.600;2023-03-02T09:56:28;8.40;91.50
1830;DHT22;914;48.118;11.600;2023-03-02T09:59:01;7.90;90.10
1830;DHT22;914;48.118;11.600;2023-03-02T10:02:00;7.70;92.40
1830;DHT22;914;48.118;11.600;2023-03-02T10:04:37;8.00;92.40
1830;DHT22;914;48.118;11.600;2023-03-02T10:07:31;8.40;92.10
1830;DHT22;914;48.118;11.600;2023-03-02T10:24:34;9.20;90.90
1830;DHT22;914;48.118;11.600;2023-03-02T10:27:23;9.20;91.00
1830;DHT22;914;48.118;11.600;2023-03-02T10:32:49;9.90;90.80
1830;DHT22;914;48.118;11.600;2023-03-02T10:35:26;10.20;88.80
1830;DHT22;914;48.118;11.600;2023-03-02T10:38:08;10.20;89.10
1830;DHT22;914;48.118;11.600;2023-03-02T10:40:40;10.00;88.10
1830;DHT22;914;48.118;11.600;2023-03-02T10:43:17;10.30;89.10
1830;DHT22;914;48.118;11.600;2023-03-02T10:45:44;10.20;89.10
1830;DHT22;914;48.118;11.600;2023-03-02T10:48:12;10.00;88.40
1830;DHT22;914;48.118;11.600;2023-03-02T10:50:40;10.20;88.80
1830;DHT22;914;48.118;11.600;2023-03-02T10:53:12;10.30;88.10
1830;DHT22;914;48.118;11.600;2023-03-02T10:55:47;10.50;86.40
1830;DHT22;914;48.118;11.600;2023-03-02T11:01:04;11.20;86.80
1830;DHT22;914;48.118;11.600;2023-03-02T11:03:32;11.30;85.70
1830;DHT22;914;48.118;11.600;2023-03-02T11:06:16;11.30;85.30
1830;DHT22;914;48.118;11.600;2023-03-02T11:08:42;11.70;85.40
1830;DHT22;914;48.118;11.600;2023-03-02T11:11:21;11.90;84.70
1830;DHT22;914;48.118;11.600;2023-03-02T11:13:46;12.30;83.20
1830;DHT22;914;48.118;11.600;2023-03-02T11:19:01;11.90;83.60
1830;DHT22;914;48.118;11.600;2023-03-02T11:26:54;12.60;80.00
1830;DHT22;914;48.118;11.600;2023-03-02T11:31:59;11.30;80.50
1830;DHT22;914;48.118;11.600;2023-03-02T11:34:42;12.10;83.90
1830;DHT22;914;48.118;11.600;2023-03-02T11:37:25;13.50;81.80
1830;DHT22;914;48.118;11.600;2023-03-02T11:40:10;14.10;75.70
1830;DHT22;914;48.118;11.600;2023-03-02T11:42:39;14.40;76.50
1830;DHT22;914;48.118;11.600;2023-03-02T11:45:27;15.30;74.50
1830;DHT22;914;48.118;11.600;2023-03-02T11:50:31;15.30;74.70
1830;DHT22;914;48.118;11.600;2023-03-02T11:53:02;15.40;74.20
1830;DHT22;914;48.118;11.600;2023-03-02T11:55:32;15.00;72.70
1830;DHT22;914;48.118;11.600;2023-03-02T11:58:00;15.30;74.60
1830;DHT22;914;48.118;11.600;2023-03-02T12:03:18;16.00;69.20
1830;DHT22;914;48.118;11.600;2023-03-02T12:06:06;16.30;70.20
1830;DHT22;914;48.118;11.600;2023-03-02T12:08:38;16.50;70.60
1830;DHT22;914;48.118;11.600;2023-03-02T12:11:30;18.80;68.20
1830;DHT22;914;48.118;11.600;2023-03-02T12:14:01;20.50;63.00
1830;DHT22;914;48.118;11.600;2023-03-02T12:16:42;17.80;59.80
1830;DHT22;914;48.118;11.600;2023-03-02T12:21:41;19.10;61.70
1830;DHT22;914;48.118;11.600;2023-03-02T12:24:23;19.70;63.90
1830;DHT22;914;48.118;11.600;2023-03-02T12:27:00;18.80;60.20
1830;DHT22;914;48.118;11.600;2023-03-02T12:29:47;19.20;61.40
1830;DHT22;914;48.118;11.600;2023-03-02T12:32:26;18.20;61.80
1830;DHT22;914;48.118;11.600;2023-03-02T12:37:28;14.90;63.00
1830;DHT22;914;48.118;11.600;2023-03-02T12:42:54;14.20;70.40
1830;DHT22;914;48.118;11.600;2023-03-02T12:48:45;15.50;67.60
1830;DHT22;914;48.118;11.600;2023-03-02T12:51:25;15.20;68.40
1830;DHT22;914;48.118;11.600;2023-03-02T12:54:04;15.10;69.70
1830;DHT22;914;48.118;11.600;2023-03-02T12:56:30;16.00;70.60
1830;DHT22;914;48.118;11.600;2023-03-02T12:58:56;16.30;69.20
1830;DHT22;914;48.118;11.600;2023-03-02T13:01:25;17.20;67.70
1830;DHT22;914;48.118;11.600;2023-03-02T13:03:52;17.80;63.60
1830;DHT22;914;48.118;11.600;2023-03-02T13:06:19;17.60;63.70
1830;DHT22;914;48.118;11.600;2023-03-02T13:08:54;18.40;66.80
1830;DHT22;914;48.118;11.600;2023-03-02T13:11:25;19.00;63.50
1830;DHT22;914;48.118;11.600;2023-03-02T13:13:52;19.30;63.80
1830;DHT22;914;48.118;11.600;2023-03-02T13:16:26;20.10;62.80
1830;DHT22;914;48.118;11.600;2023-03-02T13:18:56;19.90;60.00
1830;DHT22;914;48.118;11.600;2023-03-02T13:21:30;17.30;58.60
1830;DHT22;914;48.118;11.600;2023-03-02T13:23:57;17.60;64.40
1830;DHT22;914;48.118;11.600;2023-03-02T13:26:33;16.80;65.60
1830;DHT22;914;48.118;11.600;2023-03-02T13:29:18;16.80;66.00
1830;DHT22;914;48.118;11.600;2023-03-02T13:31:45;17.10;65.00
1830;DHT22;914;48.118;11.600;2023-03-02T13:34:44;17.50;63.50
1830;DHT22;914;48.118;11.600;2023-03-02T13:37:20;16.70;62.60
1830;DHT22;914;48.118;11.600;2023-03-02T13:40:00;16.20;66.40
1830;DHT22;914;48.118;11.600;2023-03-02T13:42:33;15.70;64.40
1830;DHT22;914;48.118;11.600;2023-03-02T13:45:23;16.20;64.30
1830;DHT22;914;48.118;11.600;2023-03-02T13:47:49;15.50;64.60
1830;DHT22;914;48.118;11.600;2023-03-02T13:50:27;15.30;68.50
1830;DHT22;914;48.118;11.600;2023-03-02T13:53:01;15.80;67.30
1830;DHT22;914;48.118;11.600;2023-03-02T13:55:30;16.30;67.00
1830;DHT22;914;48.118;11.600;2023-03-02T13:57:56;14.80;64.80
1830;DHT22;914;48.118;11.600;2023-03-02T14:00:31;15.00;67.70
1830;DHT22;914;48.118;11.600;2023-03-02T14:02:57;15.40;68.20
1830;DHT22;914;48.118;11.600;2023-03-02T14:05:25;15.50;67.30
1830;DHT22;914;48.118;11.600;2023-03-02T14:07:52;16.10;67.60
1830;DHT22;914;48.118;11.600;2023-03-02T14:10:19;16.10;64.20
1830;DHT22;914;48.118;11.600;2023-03-02T14:12:51;16.50;65.40
1830;DHT22;914;48.118;11.600;2023-03-02T14:15:18;15.70;65.20
1830;DHT22;914;48.118;11.600;2023-03-02T14:17:44;15.70;67.30
1830;DHT22;914;48.118;11.600;2023-03-02T14:20:14;15.60;69.20
1830;DHT22;914;48.118;11.600;2023-03-02T14:22:42;15.60;66.70
1830;DHT22;914;48.118;11.600;2023-03-02T14:25:09;16.40;67.10
1830;DHT22;914;48.118;11.600;2023-03-02T14:27:35;15.80;65.30
1830;DHT22;914;48.118;11.600;2023-03-02T14:30:18;16.70;64.90
1830;DHT22;914;48.118;11.600;2023-03-02T14:32:45;16.70;65.30
1830;DHT22;914;48.118;11.600;2023-03-02T14:35:12;16.10;66.10
1830;DHT22;914;48.118;11.600;2023-03-02T14:37:47;16.00;66.50
1830;DHT22;914;48.118;11.600;2023-03-02T14:40:23;15.40;69.20
1830;DHT22;914;48.118;11.600;2023-03-02T14:42:49;15.40;70.20
1830;DHT22;914;48.118;11.600;2023-03-02T14:45:16;14.90;71.20
1830;DHT22;914;48.118;11.600;2023-03-02T14:47:43;14.90;71.30
1830;DHT22;914;48.118;11.600;2023-03-02T14:50:12;14.80;72.00
1830;DHT22;914;48.118;11.600;2023-03-02T14:52:44;14.60;71.90
1830;DHT22;914;48.118;11.600;2023-03-02T14:55:29;14.20;72.90
1830;DHT22;914;48.118;11.600;2023-03-02T14:57:58;13.90;73.40
1830;DHT22;914;48.118;11.600;2023-03-02T15:00:25;13.80;74.10
1830;DHT22;914;48.118;11.600;2023-03-02T15:02:51;13.80;73.90
1830;DHT22;914;48.118;11.600;2023-03-02T15:05:18;13.90;74.90
1830;DHT22;914;48.118;11.600;2023-03-02T15:07:44;13.70;73.50
1830;DHT22;914;48.118;11.600;2023-03-02T15:10:16;13.80;76.40
1830;DHT22;914;48.118;11.600;2023-03-02T15:12:43;13.10;74.80
1830;DHT22;914;48.118;11.600;2023-03-02T15:15:09;13.10;75.80
1830;DHT22;914;48.118;11.600;2023-03-02T15:17:35;12.90;76.50
1830;DHT22;914;48.118;11.600;2023-03-02T15:20:03;12.90;76.10
1830;DHT22;914;48.118;11.600;2023-03-02T15:22:31;12.90;76.60
1830;DHT22;914;48.118;11.600;2023-03-02T15:24:57;13.10;77.00
1830;DHT22;914;48.118;11.600;2023-03-02T15:27:22;13.20;77.60
1830;DHT22;914;48.118;11.600;2023-03-02T15:29:48;12.70;76.90
1830;DHT22;914;48.118;11.600;2023-03-02T15:32:15;12.20;77.30
1830;DHT22;914;48.118;11.600;2023-03-02T15:34:41;11.80;78.50
1830;DHT22;914;48.118;11.600;2023-03-02T15:37:09;11.70;79.40
1830;DHT22;914;48.118;11.600;2023-03-02T15:39:39;11.30;79.60
1830;DHT22;914;48.118;11.600;2023-03-02T15:42:05;11.10;80.50
1830;DHT22;914;48.118;11.600;2023-03-02T15:44:31;10.90;81.40
1830;DHT22;914;48.118;11.600;2023-03-02T15:46:58;10.80;81.60
1830;DHT22;914;48.118;11.600;2023-03-02T15:49:25;10.80;81.80
1830;DHT22;914;48.118;11.600;2023-03-02T15:51:54;10.70;82.10
1830;DHT22;914;48.118;11.600;2023-03-02T15:54:22;10.80;82.50
1830;DHT22;914;48.118;11.600;2023-03-02T15:56:48;10.80;82.80
1830;DHT22;914;48.118;11.600;2023-03-02T15:59:18;10.60;82.80
1830;DHT22;914;48.118;11.600;2023-03-02T16:01:44;10.30;83.50
1830;DHT22;914;48.118;11.600;2023-03-02T16:04:10;10.20;83.80
1830;DHT22;914;48.118;11.600;2023-03-02T16:06:36;10.10;84.30
1830;DHT22;914;48.118;11.600;2023-03-02T16:09:03;10.10;84.50
1830;DHT22;914;48.118;11.600;2023-03-02T16:11:29;10.00;84.50
1830;DHT22;914;48.118;11.600;2023-03-02T16:13:55;10.00;85.00
1830;DHT22;914;48.118;11.600;2023-03-02T16:16:21;10.00;84.10
1830;DHT22;914;48.118;11.600;2023-03-02T16:18:54;9.70;86.20
1830;DHT22;914;48.118;11.600;2023-03-02T16:21:21;9.40;87.10
1830;DHT22;914;48.118;11.600;2023-03-02T16:23:47;9.20;88.10
1830;DHT22;914;48.118;11.600;2023-03-02T16:26:14;9.30;87.90
1830;DHT22;914;48.118;11.600;2023-03-02T16:28:40;9.10;88.70
1830;DHT22;914;48.118;11.600;2023-03-02T16:31:10;9.10;89.30
1830;DHT22;914;48.118;11.600;2023-03-02T16:33:37;8.90;89.70
1830;DHT22;914;48.118;11.600;2023-03-02T16:36:03;8.70;90.00
1830;DHT22;914;48.118;11.600;2023-03-02T16:38:29;8.80;90.20
1830;DHT22;914;48.118;11.600;2023-03-02T16:40:54;8.80;90.20
1830;DHT22;914;48.118;11.600;2023-03-02T16:43:20;8.80;90.10
1830;DHT22;914;48.118;11.600;2023-03-02T16:45:49;8.80;90.20
1830;DHT22;914;48.118;11.600;2023-03-02T16:48:15;8.60;90.50
1830;DHT22;914;48.118;11.600;2023-03-02T16:50:41;8.60;90.40
1830;DHT22;914;48.118;11.600;2023-03-02T16:53:07;8.50;90.30
1830;DHT22;914;48.118;11.600;2023-03-02T16:55:33;8.30;90.50
1830;DHT22;914;48.118;11.600;2023-03-02T16:57:58;8.10;90.90
1830;DHT22;914;48.118;11.600;2023-03-02T17:00:24;7.80;91.40
1830;DHT22;914;48.118;11.600;2023-03-02T17:02:50;7.80;91.70
1830;DHT22;914;48.118;11.600;2023-03-02T17:05:18;7.60;91.70
1830;DHT22;914;48.118;11.600;2023-03-02T17:07:44;7.50;92.00
1830;DHT22;914;48.118;11.600;2023-03-02T17:10:14;7.30;92.20
1830;DHT22;914;48.118;11.600;2023-03-02T17:12:40;7.20;92.60
1830;DHT22;914;48.118;11.600;2023-03-02T17:15:07;7.30;93.10
1830;DHT22;914;48.118;11.600;2023-03-02T17:17:32;7.50;92.20
1830;DHT22;914;48.118;11.600;2023-03-02T17:19:59;7.40;92.40
1830;DHT22;914;48.118;11.600;2023-03-02T17:22:25;7.20;92.50
1830;DHT22;914;48.118;11.600;2023-03-02T17:24:50;7.30;92.60
1830;DHT22;914;48.118;11.600;2023-03-02T17:27:16;7.00;92.60